createdAt,value
2023-12-09T00:05:47.788Z,99284.53
2023-12-09T00:20:49.987Z,99270.19
2023-12-09T00:35:51.724Z,99289.72
2023-12-09T00:50:53.492Z,99288.72
2023-12-09T01:05:55.373Z,99296.72
2023-12-09T01:20:57.122Z,99295.47
2023-12-09T01:35:58.867Z,99297.75
2023-12-09T01:51:02.872Z,99302.09
2023-12-09T02:06:04.843Z,99286.47
2023-12-09T02:21:06.841Z,99252.50
2023-12-09T02:36:10.392Z,99261.72
2023-12-09T02:51:12.234Z,99275.91
2023-12-09T03:06:13.987Z,99242.16
2023-12-09T03:21:17.239Z,99239.44
2023-12-09T03:36:19.138Z,99249.31
2023-12-09T03:51:23.808Z,99228.09
2023-12-09T04:06:25.499Z,99210.81
2023-12-09T04:21:27.384Z,99205.84
2023-12-09T04:36:29.086Z,99211.41
2023-12-09T04:51:30.886Z,99203.78
2023-12-09T05:06:32.645Z,99197.19
2023-12-09T05:21:36.038Z,99192.41
2023-12-09T05:36:38.660Z,99200.84
2023-12-09T05:51:42.832Z,99196.09
2023-12-09T06:06:44.780Z,99192.78
2023-12-09T06:21:46.524Z,99183.13
2023-12-09T06:36:48.714Z,99182.28
2023-12-09T06:51:50.686Z,99184.16
2023-12-09T07:06:52.546Z,99176.13
2023-12-09T07:21:54.357Z,99196.78
2023-12-09T07:36:56.093Z,99214.00
2023-12-09T07:51:57.854Z,99188.91
2023-12-09T08:06:59.549Z,99161.09
2023-12-09T08:22:01.300Z,99137.81
2023-12-09T08:37:03.037Z,99132.28
2023-12-09T08:52:05.695Z,99144.56
2023-12-09T09:07:07.482Z,99150.91
2023-12-09T09:22:09.316Z,99119.97
2023-12-09T09:37:11.494Z,99105.50
2023-12-09T09:52:16.136Z,99096.22
2023-12-09T10:07:18.240Z,99090.88
2023-12-09T10:22:20.258Z,99037.53
2023-12-09T10:37:22.342Z,99014.47
2023-12-09T10:52:24.426Z,98985.84
2023-12-09T11:07:26.514Z,98940.13
2023-12-09T11:22:29.937Z,98918.94
2023-12-09T11:37:32.736Z,98881.44
2023-12-09T11:52:35.240Z,98861.22
2023-12-09T12:07:37.517Z,98814.06
2023-12-09T12:22:42.089Z,98748.78
2023-12-09T12:37:43.959Z,98729.22
2023-12-09T12:52:45.986Z,98695.47
2023-12-09T13:07:47.654Z,98660.88
2023-12-09T13:22:49.427Z,98647.50
2023-12-09T13:37:51.314Z,98615.38
2023-12-09T13:52:52.994Z,98580.81
2023-12-09T14:07:54.663Z,98528.09
2023-12-09T14:22:56.343Z,98462.22
2023-12-09T14:37:59.161Z,98423.94
2023-12-09T14:53:01.959Z,98406.69
2023-12-09T15:08:04.963Z,98394.81
2023-12-09T15:23:07.469Z,98345.16
2023-12-09T15:38:10.665Z,98303.81
2023-12-09T15:53:12.725Z,98284.13
2023-12-09T16:08:14.392Z,98236.47
2023-12-09T16:23:16.892Z,98208.97
2023-12-09T16:38:19.394Z,98145.84
2023-12-09T16:53:22.175Z,98100.69
2023-12-09T17:08:24.019Z,98066.38
2023-12-09T17:23:25.721Z,98017.59
2023-12-09T17:38:28.235Z,97969.88
2023-12-09T17:53:30.734Z,97930.75
2023-12-09T18:08:33.284Z,97885.50
2023-12-09T18:23:35.890Z,97854.94
2023-12-09T18:38:38.430Z,97816.66
2023-12-09T18:53:40.921Z,97770.31
2023-12-09T19:08:43.422Z,97738.44
2023-12-09T19:23:45.983Z,97721.59
2023-12-09T19:38:48.497Z,97679.00
2023-12-09T19:53:50.993Z,97647.91
2023-12-09T20:08:53.505Z,97634.81
2023-12-09T20:23:56.032Z,97609.34
2023-12-09T20:38:57.764Z,97621.91
2023-12-09T20:53:59.628Z,97610.91
2023-12-09T21:09:02.288Z,97583.28
2023-12-09T21:24:06.195Z,97561.78
2023-12-09T21:39:08.806Z,97571.38
2023-12-09T21:54:11.730Z,97580.44
2023-12-09T22:09:14.012Z,97585.75
2023-12-09T22:24:15.743Z,97578.75
2023-12-09T22:39:18.468Z,97589.13
2023-12-09T22:54:22.037Z,97615.28
2023-12-09T23:09:23.940Z,97618.25
2023-12-09T23:24:26.570Z,97632.50
2023-12-09T23:39:28.254Z,97675.59
2023-12-09T23:54:29.966Z,97676.13
